Time;durP1;ratioP1;P1;durP2;ratioP2;P2;SDS_P1;SDS_P2;PMS_P1;PMS_P2;Temp;Humidity;BMP_temperature;BMP_pressure;BME280_temperature;BME280_humidity;BME280_pressure;Samples;Min_cycle;Max_cycle;Signal;HPM_P1;HPM_P2
2021/01/02 00:00:20;;;;;;;32.8;18.55;;;;;;;1.52;69.90527;94441.18;;;;
2021/01/02 00:01:22;;;;;;;33;18.75;;;;;;;1.37;70.06836;94453.85;;;;
2021/01/02 00:02:26;;;;;;;33;18.75;;;;;;;1.37;70.06836;94453.85;;;;
2021/01/02 00:03:40;;;;;;;33;18.75;;;;;;;1.37;70.06836;94453.85;;;;
2021/01/02 00:05:11;;;;;;;33;18.75;;;;;;;1.37;70.06836;94453.85;;;;
2021/01/02 00:06:12;;;;;;;33;18.75;;;;;;;1.37;70.06836;94453.85;;;;
2021/01/02 00:07:21;;;;;;;33;18.75;;;;;;;1.37;70.06836;94453.85;;;;
2021/01/02 00:08:46;;;;;;;33;18.75;;;;;;;1.37;70.06836;94453.85;;;;
2021/01/02 00:09:50;;;;;;;33;18.75;;;;;;;1.37;70.06836;94453.85;;;;
2021/01/02 00:10:54;;;;;;;33;18.75;;;;;;;1.37;70.06836;94453.85;;;;
2021/01/02 00:12:41;;;;;;;35.25001;19.35;;;;;;;1.35;70.21387;94456.67;;;;
2021/01/02 00:14:02;;;;;;;35.25001;19.35;;;;;;;1.35;70.21387;94456.67;;;;
2021/01/02 00:15:10;;;;;;;35.25001;19.35;;;;;;;1.35;70.21387;94456.67;;;;
2021/01/02 00:16:17;;;;;;;35.25001;19.35;;;;;;;1.35;70.21387;94456.67;;;;
2021/01/02 00:17:36;;;;;;;35.25001;19.35;;;;;;;1.35;70.21387;94456.67;;;;
2021/01/02 00:19:23;;;;;;;35.25001;19.35;;;;;;;1.35;70.21387;94456.67;;;;
2021/01/02 00:20:41;;;;;;;35.25001;19.35;;;;;;;1.35;70.21387;94456.67;;;;
2021/01/02 00:21:57;;;;;;;35.25;19.7;;;;;;;1.24;70.20508;94438.26;;;;
2021/01/02 00:23:01;;;;;;;35.25;19.7;;;;;;;1.24;70.20508;94438.26;;;;
2021/01/02 00:24:07;;;;;;;35.25;19.7;;;;;;;1.24;70.20508;94438.26;;;;
2021/01/02 00:25:23;;;;;;;35.25;19.7;;;;;;;1.24;70.20508;94438.26;;;;
2021/01/02 00:26:27;;;;;;;35.25;19.7;;;;;;;1.24;70.20508;94438.26;;;;
2021/01/02 00:27:40;;;;;;;35.25;19.7;;;;;;;1.24;70.20508;94438.26;;;;
2021/01/02 00:28:51;;;;;;;35.25;19.7;;;;;;;1.24;70.20508;94438.26;;;;
2021/01/02 00:29:52;;;;;;;35.25;19.7;;;;;;;1.24;70.20508;94438.26;;;;
2021/01/02 00:31:06;;;;;;;35.25;19.7;;;;;;;1.24;70.20508;94438.26;;;;
2021/01/02 00:32:28;;;;;;;35.25;19.7;;;;;;;1.24;70.20508;94438.26;;;;
2021/01/02 00:33:39;;;;;;;34.1;19.1;;;;;;;1.22;70.43457;94462.36;;;;
2021/01/02 00:34:56;;;;;;;34.1;19.1;;;;;;;1.22;70.43457;94462.36;;;;
2021/01/02 00:36:05;;;;;;;34.1;19.1;;;;;;;1.22;70.43457;94462.36;;;;
2021/01/02 00:37:13;;;;;;;34.1;19.1;;;;;;;1.22;70.43457;94462.36;;;;
2021/01/02 00:38:22;;;;;;;34.1;19.1;;;;;;;1.22;70.43457;94462.36;;;;
2021/01/02 00:39:22;;;;;;;34.1;19.1;;;;;;;1.22;70.43457;94462.36;;;;
2021/01/02 00:40:31;;;;;;;34.1;19.1;;;;;;;1.22;70.43457;94462.36;;;;
2021/01/02 00:41:33;;;;;;;34.1;19.1;;;;;;;1.22;70.43457;94462.36;;;;
2021/01/02 00:42:34;;;;;;;34.1;19.1;;;;;;;1.22;70.43457;94462.36;;;;
2021/01/02 00:43:36;;;;;;;35;19.9;;;;;;;1.21;70.45215;94460.31;;;;
2021/01/02 00:44:38;;;;;;;35;19.9;;;;;;;1.21;70.45215;94460.31;;;;
2021/01/02 00:45:41;;;;;;;35;19.9;;;;;;;1.21;70.45215;94460.31;;;;
2021/01/02 00:46:41;;;;;;;35;19.9;;;;;;;1.21;70.45215;94460.31;;;;
2021/01/02 00:47:43;;;;;;;35;19.9;;;;;;;1.21;70.45215;94460.31;;;;
2021/01/02 00:48:44;;;;;;;35;19.9;;;;;;;1.21;70.45215;94460.31;;;;
2021/01/02 00:49:47;;;;;;;35;19.9;;;;;;;1.21;70.45215;94460.31;;;;
2021/01/02 00:50:50;;;;;;;35;19.9;;;;;;;1.21;70.45215;94460.31;;;;
2021/01/02 00:51:52;;;;;;;35;19.9;;;;;;;1.21;70.45215;94460.31;;;;
2021/01/02 00:53:04;;;;;;;35;19.9;;;;;;;1.21;70.45215;94460.31;;;;
2021/01/02 00:54:22;;;;;;;34.84999;19.5;;;;;;;1.25;70.51074;94475.27;;;;
2021/01/02 00:55:33;;;;;;;34.84999;19.5;;;;;;;1.25;70.51074;94475.27;;;;
2021/01/02 00:56:55;;;;;;;34.84999;19.5;;;;;;;1.25;70.51074;94475.27;;;;
2021/01/02 00:58:02;;;;;;;34.84999;19.5;;;;;;;1.25;70.51074;94475.27;;;;
2021/01/02 00:59:05;;;;;;;34.84999;19.5;;;;;;;1.25;70.51074;94475.27;;;;
2021/01/02 01:00:29;;;;;;;34.84999;19.5;;;;;;;1.25;70.51074;94475.27;;;;
2021/01/02 01:01:33;;;;;;;34.84999;19.5;;;;;;;1.25;70.51074;94475.27;;;;
2021/01/02 01:02:39;;;;;;;34.84999;19.5;;;;;;;1.25;70.51074;94475.27;;;;
2021/01/02 01:03:57;;;;;;;34.84999;19.5;;;;;;;1.25;70.51074;94475.27;;;;
2021/01/02 01:05:20;;;;;;;34.7;20.05;;;;;;;1.21;70.49316;94470.12;;;;
2021/01/02 01:06:22;;;;;;;34.7;20.05;;;;;;;1.21;70.49316;94470.12;;;;
2021/01/02 01:07:28;;;;;;;34.7;20.05;;;;;;;1.21;70.49316;94470.12;;;;
2021/01/02 01:08:32;;;;;;;34.7;20.05;;;;;;;1.21;70.49316;94470.12;;;;
2021/01/02 01:09:34;;;;;;;34.7;20.05;;;;;;;1.21;70.49316;94470.12;;;;
2021/01/02 01:10:37;;;;;;;34.7;20.05;;;;;;;1.21;70.49316;94470.12;;;;
2021/01/02 01:11:38;;;;;;;34.7;20.05;;;;;;;1.21;70.49316;94470.12;;;;
2021/01/02 01:12:45;;;;;;;34.7;20.05;;;;;;;1.21;70.49316;94470.12;;;;
2021/01/02 01:13:52;;;;;;;34.7;20.05;;;;;;;1.21;70.49316;94470.12;;;;
2021/01/02 01:14:54;;;;;;;34.7;20.05;;;;;;;1.21;70.49316;94470.12;;;;
2021/01/02 01:15:56;;;;;;;33.8;19.8;;;;;;;1.23;70.60254;94475.56;;;;
2021/01/02 01:16:56;;;;;;;33.8;19.8;;;;;;;1.23;70.60254;94475.56;;;;
2021/01/02 01:18:02;;;;;;;33.8;19.8;;;;;;;1.23;70.60254;94475.56;;;;
2021/01/02 01:19:17;;;;;;;33.8;19.8;;;;;;;1.23;70.60254;94475.56;;;;
2021/01/02 01:20:20;;;;;;;33.8;19.8;;;;;;;1.23;70.60254;94475.56;;;;
2021/01/02 01:21:25;;;;;;;33.8;19.8;;;;;;;1.23;70.60254;94475.56;;;;
2021/01/02 01:22:27;;;;;;;33.8;19.8;;;;;;;1.23;70.60254;94475.56;;;;
2021/01/02 01:23:35;;;;;;;33.8;19.8;;;;;;;1.23;70.60254;94475.56;;;;
2021/01/02 01:24:53;;;;;;;33.8;19.8;;;;;;;1.23;70.60254;94475.56;;;;
2021/01/02 01:26:02;;;;;;;37.8;18.95;;;;;;;1.21;70.78809;94466.96;;;;
2021/01/02 01:27:16;;;;;;;37.8;18.95;;;;;;;1.21;70.78809;94466.96;;;;
2021/01/02 01:28:28;;;;;;;37.8;18.95;;;;;;;1.21;70.78809;94466.96;;;;
2021/01/02 01:29:31;;;;;;;37.8;18.95;;;;;;;1.21;70.78809;94466.96;;;;
2021/01/02 01:30:40;;;;;;;37.8;18.95;;;;;;;1.21;70.78809;94466.96;;;;
2021/01/02 01:31:43;;;;;;;37.8;18.95;;;;;;;1.21;70.78809;94466.96;;;;
2021/01/02 01:32:46;;;;;;;37.8;18.95;;;;;;;1.21;70.78809;94466.96;;;;
2021/01/02 01:33:59;;;;;;;37.8;18.95;;;;;;;1.21;70.78809;94466.96;;;;
2021/01/02 01:35:04;;;;;;;37.8;18.95;;;;;;;1.21;70.78809;94466.96;;;;
2021/01/02 01:36:06;;;;;;;37.8;18.95;;;;;;;1.21;70.78809;94466.96;;;;
2021/01/02 01:37:07;;;;;;;34.05001;19.2;;;;;;;1.26;70.94434;94488.86;;;;
2021/01/02 01:38:08;;;;;;;34.05001;19.2;;;;;;;1.26;70.94434;94488.86;;;;
2021/01/02 01:39:14;;;;;;;34.05001;19.2;;;;;;;1.26;70.94434;94488.86;;;;
2021/01/02 01:40:15;;;;;;;34.05001;19.2;;;;;;;1.26;70.94434;94488.86;;;;
2021/01/02 01:41:22;;;;;;;34.05001;19.2;;;;;;;1.26;70.94434;94488.86;;;;
2021/01/02 01:42:33;;;;;;;34.05001;19.2;;;;;;;1.26;70.94434;94488.86;;;;
2021/01/02 01:43:39;;;;;;;34.05001;19.2;;;;;;;1.26;70.94434;94488.86;;;;
2021/01/02 01:45:19;;;;;;;34.05001;19.2;;;;;;;1.26;70.94434;94488.86;;;;
2021/01/02 01:46:56;;;;;;;34.05001;19.2;;;;;;;1.26;70.94434;94488.86;;;;
2021/01/02 01:48:10;;;;;;;34.25;19.1;;;;;;;1.25;70.89844;94486.41;;;;
2021/01/02 01:49:12;;;;;;;34.25;19.1;;;;;;;1.25;70.89844;94486.41;;;;
2021/01/02 01:50:46;;;;;;;34.25;19.1;;;;;;;1.25;70.89844;94486.41;;;;
2021/01/02 01:51:56;;;;;;;34.25;19.1;;;;;;;1.25;70.89844;94486.41;;;;
2021/01/02 01:52:58;;;;;;;34.25;19.1;;;;;;;1.25;70.89844;94486.41;;;;
2021/01/02 01:54:37;;;;;;;34.25;19.1;;;;;;;1.25;70.89844;94486.41;;;;
2021/01/02 01:56:00;;;;;;;34.25;19.1;;;;;;;1.25;70.89844;94486.41;;;;
2021/01/02 01:57:23;;;;;;;34.25;19.1;;;;;;;1.25;70.89844;94486.41;;;;
2021/01/02 01:58:25;;;;;;;32.85001;19.25;;;;;;;1.26;70.96484;94496.42;;;;
2021/01/02 02:00:19;;;;;;;32.85001;19.25;;;;;;;1.26;70.96484;94496.42;;;;
2021/01/02 02:01:20;;;;;;;32.85001;19.25;;;;;;;1.26;70.96484;94496.42;;;;
2021/01/02 02:02:24;;;;;;;32.85001;19.25;;;;;;;1.26;70.96484;94496.42;;;;
2021/01/02 02:03:52;;;;;;;32.85001;19.25;;;;;;;1.26;70.96484;94496.42;;;;
2021/01/02 02:05:31;;;;;;;32.85001;19.25;;;;;;;1.26;70.96484;94496.42;;;;
2021/01/02 02:06:47;;;;;;;32.85001;19.25;;;;;;;1.26;70.96484;94496.42;;;;
2021/01/02 02:07:58;;;;;;;32.85001;19.25;;;;;;;1.26;70.96484;94496.42;;;;
2021/01/02 02:09:00;;;;;;;31.75;19.35;;;;;;;1.19;71.03613;94486.27;;;;
2021/01/02 02:10:01;;;;;;;31.75;19.35;;;;;;;1.19;71.03613;94486.27;;;;
2021/01/02 02:11:05;;;;;;;31.75;19.35;;;;;;;1.19;71.03613;94486.27;;;;
2021/01/02 02:12:06;;;;;;;31.75;19.35;;;;;;;1.19;71.03613;94486.27;;;;
2021/01/02 02:13:18;;;;;;;31.75;19.35;;;;;;;1.19;71.03613;94486.27;;;;
2021/01/02 02:14:27;;;;;;;31.75;19.35;;;;;;;1.19;71.03613;94486.27;;;;
2021/01/02 02:15:37;;;;;;;31.75;19.35;;;;;;;1.19;71.03613;94486.27;;;;
2021/01/02 02:16:47;;;;;;;31.75;19.35;;;;;;;1.19;71.03613;94486.27;;;;
2021/01/02 02:17:56;;;;;;;31.75;19.35;;;;;;;1.19;71.03613;94486.27;;;;
2021/01/02 02:19:06;;;;;;;31.75;19.35;;;;;;;1.19;71.03613;94486.27;;;;
2021/01/02 02:20:19;;;;;;;29.9;18.15;;;;;;;1.12;71.17188;94482.76;;;;
2021/01/02 02:21:21;;;;;;;29.9;18.15;;;;;;;1.12;71.17188;94482.76;;;;
2021/01/02 02:22:27;;;;;;;29.9;18.15;;;;;;;1.12;71.17188;94482.76;;;;
2021/01/02 02:23:33;;;;;;;29.9;18.15;;;;;;;1.12;71.17188;94482.76;;;;
2021/01/02 02:24:40;;;;;;;29.9;18.15;;;;;;;1.12;71.17188;94482.76;;;;
2021/01/02 02:25:43;;;;;;;29.9;18.15;;;;;;;1.12;71.17188;94482.76;;;;
2021/01/02 02:26:47;;;;;;;29.9;18.15;;;;;;;1.12;71.17188;94482.76;;;;
2021/01/02 02:27:52;;;;;;;29.9;18.15;;;;;;;1.12;71.17188;94482.76;;;;
2021/01/02 02:28:53;;;;;;;29.9;18.15;;;;;;;1.12;71.17188;94482.76;;;;
2021/01/02 02:30:07;;;;;;;33.25;19.7;;;;;;;0.94;71.3916;94486.47;;;;
2021/01/02 02:31:12;;;;;;;33.25;19.7;;;;;;;0.94;71.3916;94486.47;;;;
2021/01/02 02:32:15;;;;;;;33.25;19.7;;;;;;;0.94;71.3916;94486.47;;;;
2021/01/02 02:33:17;;;;;;;33.25;19.7;;;;;;;0.94;71.3916;94486.47;;;;
2021/01/02 02:34:21;;;;;;;33.25;19.7;;;;;;;0.94;71.3916;94486.47;;;;
2021/01/02 02:35:23;;;;;;;33.25;19.7;;;;;;;0.94;71.3916;94486.47;;;;
2021/01/02 02:36:23;;;;;;;33.25;19.7;;;;;;;0.94;71.3916;94486.47;;;;
2021/01/02 02:37:26;;;;;;;33.25;19.7;;;;;;;0.94;71.3916;94486.47;;;;
2021/01/02 02:38:26;;;;;;;33.25;19.7;;;;;;;0.94;71.3916;94486.47;;;;
2021/01/02 02:39:26;;;;;;;33.25;19.7;;;;;;;0.94;71.3916;94486.47;;;;
2021/01/02 02:40:27;;;;;;;33.25;19.7;;;;;;;0.94;71.3916;94486.47;;;;
2021/01/02 02:41:28;;;;;;;34.25;19.3;;;;;;;0.9;71.59668;94472.34;;;;
2021/01/02 02:42:31;;;;;;;34.25;19.3;;;;;;;0.9;71.59668;94472.34;;;;
2021/01/02 02:43:35;;;;;;;34.25;19.3;;;;;;;0.9;71.59668;94472.34;;;;
2021/01/02 02:44:39;;;;;;;34.25;19.3;;;;;;;0.9;71.59668;94472.34;;;;
2021/01/02 02:45:46;;;;;;;34.25;19.3;;;;;;;0.9;71.59668;94472.34;;;;
2021/01/02 02:46:48;;;;;;;34.25;19.3;;;;;;;0.9;71.59668;94472.34;;;;
2021/01/02 02:47:52;;;;;;;34.25;19.3;;;;;;;0.9;71.59668;94472.34;;;;
2021/01/02 02:48:55;;;;;;;34.25;19.3;;;;;;;0.9;71.59668;94472.34;;;;
2021/01/02 02:50:01;;;;;;;34.25;19.3;;;;;;;0.9;71.59668;94472.34;;;;
2021/01/02 02:51:03;;;;;;;34.25;19.3;;;;;;;0.9;71.59668;94472.34;;;;
2021/01/02 02:52:05;;;;;;;32.4;18.4;;;;;;;0.8;71.62109;94458.61;;;;
2021/01/02 02:53:14;;;;;;;32.4;18.4;;;;;;;0.8;71.62109;94458.61;;;;
2021/01/02 02:54:16;;;;;;;32.4;18.4;;;;;;;0.8;71.62109;94458.61;;;;
2021/01/02 02:55:17;;;;;;;32.4;18.4;;;;;;;0.8;71.62109;94458.61;;;;
2021/01/02 02:56:17;;;;;;;32.4;18.4;;;;;;;0.8;71.62109;94458.61;;;;
2021/01/02 02:57:18;;;;;;;32.4;18.4;;;;;;;0.8;71.62109;94458.61;;;;
2021/01/02 02:58:20;;;;;;;32.4;18.4;;;;;;;0.8;71.62109;94458.61;;;;
2021/01/02 02:59:20;;;;;;;32.4;18.4;;;;;;;0.8;71.62109;94458.61;;;;
2021/01/02 03:00:21;;;;;;;32.4;18.4;;;;;;;0.8;71.62109;94458.61;;;;
2021/01/02 03:01:21;;;;;;;32.4;18.4;;;;;;;0.8;71.62109;94458.61;;;;
2021/01/02 03:02:22;;;;;;;35.35;20.55;;;;;;;0.73;71.84863;94468.89;;;;
2021/01/02 03:03:25;;;;;;;35.35;20.55;;;;;;;0.73;71.84863;94468.89;;;;
2021/01/02 03:04:27;;;;;;;35.35;20.55;;;;;;;0.73;71.84863;94468.89;;;;
2021/01/02 03:05:27;;;;;;;35.35;20.55;;;;;;;0.73;71.84863;94468.89;;;;
2021/01/02 03:06:28;;;;;;;35.35;20.55;;;;;;;0.73;71.84863;94468.89;;;;
2021/01/02 03:07:30;;;;;;;35.35;20.55;;;;;;;0.73;71.84863;94468.89;;;;
2021/01/02 03:08:31;;;;;;;35.35;20.55;;;;;;;0.73;71.84863;94468.89;;;;
2021/01/02 03:09:32;;;;;;;35.35;20.55;;;;;;;0.73;71.84863;94468.89;;;;
2021/01/02 03:10:33;;;;;;;35.35;20.55;;;;;;;0.73;71.84863;94468.89;;;;
2021/01/02 03:11:35;;;;;;;35.35;20.55;;;;;;;0.73;71.84863;94468.89;;;;
2021/01/02 03:12:35;;;;;;;35.35;20.55;;;;;;;0.73;71.84863;94468.89;;;;
2021/01/02 03:13:40;;;;;;;34.95;20.45;;;;;;;0.72;71.94336;94464.07;;;;
2021/01/02 03:14:41;;;;;;;34.95;20.45;;;;;;;0.72;71.94336;94464.07;;;;
2021/01/02 03:15:42;;;;;;;34.95;20.45;;;;;;;0.72;71.94336;94464.07;;;;
2021/01/02 03:16:42;;;;;;;34.95;20.45;;;;;;;0.72;71.94336;94464.07;;;;
2021/01/02 03:17:43;;;;;;;34.95;20.45;;;;;;;0.72;71.94336;94464.07;;;;
2021/01/02 03:18:44;;;;;;;34.95;20.45;;;;;;;0.72;71.94336;94464.07;;;;
2021/01/02 03:19:45;;;;;;;34.95;20.45;;;;;;;0.72;71.94336;94464.07;;;;
2021/01/02 03:20:45;;;;;;;34.95;20.45;;;;;;;0.72;71.94336;94464.07;;;;
2021/01/02 03:21:46;;;;;;;34.95;20.45;;;;;;;0.72;71.94336;94464.07;;;;
2021/01/02 03:22:46;;;;;;;34.95;20.45;;;;;;;0.72;71.94336;94464.07;;;;
2021/01/02 03:23:48;;;;;;;34.65;21;;;;;;;0.8;71.99805;94472.31;;;;
2021/01/02 03:24:49;;;;;;;34.65;21;;;;;;;0.8;71.99805;94472.31;;;;
2021/01/02 03:25:50;;;;;;;34.65;21;;;;;;;0.8;71.99805;94472.31;;;;
2021/01/02 03:26:50;;;;;;;34.65;21;;;;;;;0.8;71.99805;94472.31;;;;
2021/01/02 03:27:51;;;;;;;34.65;21;;;;;;;0.8;71.99805;94472.31;;;;
2021/01/02 03:28:52;;;;;;;34.65;21;;;;;;;0.8;71.99805;94472.31;;;;
2021/01/02 03:29:53;;;;;;;34.65;21;;;;;;;0.8;71.99805;94472.31;;;;
2021/01/02 03:30:54;;;;;;;34.65;21;;;;;;;0.8;71.99805;94472.31;;;;
2021/01/02 03:31:54;;;;;;;34.65;21;;;;;;;0.8;71.99805;94472.31;;;;
2021/01/02 03:32:54;;;;;;;34.65;21;;;;;;;0.8;71.99805;94472.31;;;;
2021/01/02 03:33:55;;;;;;;34.65;21;;;;;;;0.8;71.99805;94472.31;;;;
2021/01/02 03:34:56;;;;;;;34.2;19.95;;;;;;;0.81;72.03027;94476.18;;;;
2021/01/02 03:35:56;;;;;;;34.2;19.95;;;;;;;0.81;72.03027;94476.18;;;;
2021/01/02 03:36:58;;;;;;;34.2;19.95;;;;;;;0.81;72.03027;94476.18;;;;
2021/01/02 03:37:59;;;;;;;34.2;19.95;;;;;;;0.81;72.03027;94476.18;;;;
2021/01/02 03:38:59;;;;;;;34.2;19.95;;;;;;;0.81;72.03027;94476.18;;;;
2021/01/02 03:40:00;;;;;;;34.2;19.95;;;;;;;0.81;72.03027;94476.18;;;;
2021/01/02 03:41:01;;;;;;;34.2;19.95;;;;;;;0.81;72.03027;94476.18;;;;
2021/01/02 03:42:01;;;;;;;34.2;19.95;;;;;;;0.81;72.03027;94476.18;;;;
2021/01/02 03:43:02;;;;;;;34.2;19.95;;;;;;;0.81;72.03027;94476.18;;;;
2021/01/02 03:44:03;;;;;;;34.2;19.95;;;;;;;0.81;72.03027;94476.18;;;;
2021/01/02 03:45:04;;;;;;;35.85;20.4;;;;;;;0.89;72.37988;94480.43;;;;
2021/01/02 03:46:07;;;;;;;35.85;20.4;;;;;;;0.89;72.37988;94480.43;;;;
2021/01/02 03:47:07;;;;;;;35.85;20.4;;;;;;;0.89;72.37988;94480.43;;;;
2021/01/02 03:48:09;;;;;;;35.85;20.4;;;;;;;0.89;72.37988;94480.43;;;;
2021/01/02 03:49:09;;;;;;;35.85;20.4;;;;;;;0.89;72.37988;94480.43;;;;
2021/01/02 03:50:10;;;;;;;35.85;20.4;;;;;;;0.89;72.37988;94480.43;;;;
2021/01/02 03:51:11;;;;;;;35.85;20.4;;;;;;;0.89;72.37988;94480.43;;;;
2021/01/02 03:52:12;;;;;;;35.85;20.4;;;;;;;0.89;72.37988;94480.43;;;;
2021/01/02 03:53:13;;;;;;;35.85;20.4;;;;;;;0.89;72.37988;94480.43;;;;
2021/01/02 03:54:17;;;;;;;35.85;20.4;;;;;;;0.89;72.37988;94480.43;;;;
2021/01/02 03:55:17;;;;;;;35.85;20.4;;;;;;;0.89;72.37988;94480.43;;;;
2021/01/02 03:56:18;;;;;;;35.55;20;;;;;;;0.91;72.60156;94463.87;;;;
2021/01/02 03:57:18;;;;;;;35.55;20;;;;;;;0.91;72.60156;94463.87;;;;
2021/01/02 03:58:19;;;;;;;35.55;20;;;;;;;0.91;72.60156;94463.87;;;;
2021/01/02 03:59:19;;;;;;;35.55;20;;;;;;;0.91;72.60156;94463.87;;;;
2021/01/02 04:00:20;;;;;;;35.55;20;;;;;;;0.91;72.60156;94463.87;;;;
2021/01/02 04:01:21;;;;;;;35.55;20;;;;;;;0.91;72.60156;94463.87;;;;
2021/01/02 04:02:21;;;;;;;35.55;20;;;;;;;0.91;72.60156;94463.87;;;;
2021/01/02 04:03:25;;;;;;;35.55;20;;;;;;;0.91;72.60156;94463.87;;;;
2021/01/02 04:04:25;;;;;;;35.55;20;;;;;;;0.91;72.60156;94463.87;;;;
2021/01/02 04:05:27;;;;;;;35.55;20;;;;;;;0.91;72.60156;94463.87;;;;
2021/01/02 04:06:27;;;;;;;38.5;20.15;;;;;;;0.88;72.47266;94459.76;;;;
2021/01/02 04:07:28;;;;;;;38.5;20.15;;;;;;;0.88;72.47266;94459.76;;;;
2021/01/02 04:08:29;;;;;;;38.5;20.15;;;;;;;0.88;72.47266;94459.76;;;;
2021/01/02 04:09:30;;;;;;;38.5;20.15;;;;;;;0.88;72.47266;94459.76;;;;
2021/01/02 04:10:31;;;;;;;38.5;20.15;;;;;;;0.88;72.47266;94459.76;;;;
2021/01/02 04:11:31;;;;;;;38.5;20.15;;;;;;;0.88;72.47266;94459.76;;;;
2021/01/02 04:12:39;;;;;;;38.5;20.15;;;;;;;0.88;72.47266;94459.76;;;;
2021/01/02 04:13:40;;;;;;;38.5;20.15;;;;;;;0.88;72.47266;94459.76;;;;
2021/01/02 04:14:40;;;;;;;38.5;20.15;;;;;;;0.88;72.47266;94459.76;;;;
2021/01/02 04:15:40;;;;;;;38.5;20.15;;;;;;;0.88;72.47266;94459.76;;;;
2021/01/02 04:16:41;;;;;;;35.7;20.65;;;;;;;0.9;72.53809;94459.06;;;;
2021/01/02 04:17:42;;;;;;;35.7;20.65;;;;;;;0.9;72.53809;94459.06;;;;
2021/01/02 04:18:43;;;;;;;35.7;20.65;;;;;;;0.9;72.53809;94459.06;;;;
2021/01/02 04:19:44;;;;;;;35.7;20.65;;;;;;;0.9;72.53809;94459.06;;;;
2021/01/02 04:20:44;;;;;;;35.7;20.65;;;;;;;0.9;72.53809;94459.06;;;;
2021/01/02 04:21:46;;;;;;;35.7;20.65;;;;;;;0.9;72.53809;94459.06;;;;
2021/01/02 04:22:47;;;;;;;35.7;20.65;;;;;;;0.9;72.53809;94459.06;;;;
2021/01/02 04:23:47;;;;;;;35.7;20.65;;;;;;;0.9;72.53809;94459.06;;;;
2021/01/02 04:24:48;;;;;;;35.7;20.65;;;;;;;0.9;72.53809;94459.06;;;;
2021/01/02 04:25:48;;;;;;;35.7;20.65;;;;;;;0.9;72.53809;94459.06;;;;
2021/01/02 04:26:49;;;;;;;35.7;20.65;;;;;;;0.9;72.53809;94459.06;;;;
2021/01/02 04:27:50;;;;;;;35.85;20.95;;;;;;;0.83;72.52539;94453.81;;;;
2021/01/02 04:28:50;;;;;;;35.85;20.95;;;;;;;0.83;72.52539;94453.81;;;;
2021/01/02 04:29:52;;;;;;;35.85;20.95;;;;;;;0.83;72.52539;94453.81;;;;
2021/01/02 04:30:52;;;;;;;35.85;20.95;;;;;;;0.83;72.52539;94453.81;;;;
2021/01/02 04:31:54;;;;;;;35.85;20.95;;;;;;;0.83;72.52539;94453.81;;;;
2021/01/02 04:32:55;;;;;;;35.85;20.95;;;;;;;0.83;72.52539;94453.81;;;;
2021/01/02 04:33:55;;;;;;;35.85;20.95;;;;;;;0.83;72.52539;94453.81;;;;
2021/01/02 04:34:56;;;;;;;35.85;20.95;;;;;;;0.83;72.52539;94453.81;;;;
2021/01/02 04:35:56;;;;;;;35.85;20.95;;;;;;;0.83;72.52539;94453.81;;;;
2021/01/02 04:36:56;;;;;;;35.85;20.95;;;;;;;0.83;72.52539;94453.81;;;;
2021/01/02 04:37:57;;;;;;;35.85;20.95;;;;;;;0.83;72.52539;94453.81;;;;
2021/01/02 04:38:59;;;;;;;38.90001;21.7;;;;;;;0.82;72.6582;94455.75;;;;
2021/01/02 04:40:00;;;;;;;38.90001;21.7;;;;;;;0.82;72.6582;94455.75;;;;
2021/01/02 04:41:01;;;;;;;38.90001;21.7;;;;;;;0.82;72.6582;94455.75;;;;
2021/01/02 04:42:01;;;;;;;38.90001;21.7;;;;;;;0.82;72.6582;94455.75;;;;
2021/01/02 04:43:02;;;;;;;38.90001;21.7;;;;;;;0.82;72.6582;94455.75;;;;
2021/01/02 04:44:02;;;;;;;38.90001;21.7;;;;;;;0.82;72.6582;94455.75;;;;
2021/01/02 04:45:03;;;;;;;38.90001;21.7;;;;;;;0.82;72.6582;94455.75;;;;
2021/01/02 04:46:05;;;;;;;38.90001;21.7;;;;;;;0.82;72.6582;94455.75;;;;
2021/01/02 04:47:06;;;;;;;38.90001;21.7;;;;;;;0.82;72.6582;94455.75;;;;
2021/01/02 04:48:07;;;;;;;38.90001;21.7;;;;;;;0.82;72.6582;94455.75;;;;
2021/01/02 04:49:08;;;;;;;37.60001;21.6;;;;;;;0.78;72.72656;94454.41;;;;
2021/01/02 04:50:09;;;;;;;37.60001;21.6;;;;;;;0.78;72.72656;94454.41;;;;
2021/01/02 04:51:10;;;;;;;37.60001;21.6;;;;;;;0.78;72.72656;94454.41;;;;
2021/01/02 04:52:13;;;;;;;37.60001;21.6;;;;;;;0.78;72.72656;94454.41;;;;
2021/01/02 04:53:15;;;;;;;37.60001;21.6;;;;;;;0.78;72.72656;94454.41;;;;
2021/01/02 04:54:17;;;;;;;37.60001;21.6;;;;;;;0.78;72.72656;94454.41;;;;
2021/01/02 04:55:22;;;;;;;37.60001;21.6;;;;;;;0.78;72.72656;94454.41;;;;
2021/01/02 04:56:26;;;;;;;37.60001;21.6;;;;;;;0.78;72.72656;94454.41;;;;
2021/01/02 04:57:30;;;;;;;37.60001;21.6;;;;;;;0.78;72.72656;94454.41;;;;
2021/01/02 04:58:33;;;;;;;37.60001;21.6;;;;;;;0.78;72.72656;94454.41;;;;
2021/01/02 04:59:36;;;;;;;36;20.35;;;;;;;0.83;72.81836;94449.83;;;;
2021/01/02 05:00:39;;;;;;;36;20.35;;;;;;;0.83;72.81836;94449.83;;;;
2021/01/02 05:01:40;;;;;;;36;20.35;;;;;;;0.83;72.81836;94449.83;;;;
2021/01/02 05:02:41;;;;;;;36;20.35;;;;;;;0.83;72.81836;94449.83;;;;
2021/01/02 05:03:44;;;;;;;36;20.35;;;;;;;0.83;72.81836;94449.83;;;;
2021/01/02 05:04:45;;;;;;;36;20.35;;;;;;;0.83;72.81836;94449.83;;;;
2021/01/02 05:05:47;;;;;;;36;20.35;;;;;;;0.83;72.81836;94449.83;;;;
2021/01/02 05:06:49;;;;;;;36;20.35;;;;;;;0.83;72.81836;94449.83;;;;
2021/01/02 05:07:49;;;;;;;36;20.35;;;;;;;0.83;72.81836;94449.83;;;;
2021/01/02 05:08:50;;;;;;;36;20.35;;;;;;;0.83;72.81836;94449.83;;;;
2021/01/02 05:09:51;;;;;;;36;20.35;;;;;;;0.83;72.81836;94449.83;;;;
2021/01/02 05:10:52;;;;;;;35.65;20.1;;;;;;;0.79;72.83301;94454.71;;;;
2021/01/02 05:11:57;;;;;;;35.65;20.1;;;;;;;0.79;72.83301;94454.71;;;;
2021/01/02 05:12:57;;;;;;;35.65;20.1;;;;;;;0.79;72.83301;94454.71;;;;
2021/01/02 05:14:07;;;;;;;35.65;20.1;;;;;;;0.79;72.83301;94454.71;;;;
2021/01/02 05:15:08;;;;;;;35.65;20.1;;;;;;;0.79;72.83301;94454.71;;;;
2021/01/02 05:16:11;;;;;;;35.65;20.1;;;;;;;0.79;72.83301;94454.71;;;;
2021/01/02 05:17:16;;;;;;;35.65;20.1;;;;;;;0.79;72.83301;94454.71;;;;
2021/01/02 05:18:25;;;;;;;35.65;20.1;;;;;;;0.79;72.83301;94454.71;;;;
2021/01/02 05:19:25;;;;;;;35.65;20.1;;;;;;;0.79;72.83301;94454.71;;;;
2021/01/02 05:20:26;;;;;;;35.65;20.1;;;;;;;0.79;72.83301;94454.71;;;;
2021/01/02 05:21:26;;;;;;;34.85;19.75;;;;;;;0.76;73.08984;94467.07;;;;
2021/01/02 05:22:28;;;;;;;34.85;19.75;;;;;;;0.76;73.08984;94467.07;;;;
2021/01/02 05:23:29;;;;;;;34.85;19.75;;;;;;;0.76;73.08984;94467.07;;;;
2021/01/02 05:24:29;;;;;;;34.85;19.75;;;;;;;0.76;73.08984;94467.07;;;;
2021/01/02 05:25:30;;;;;;;34.85;19.75;;;;;;;0.76;73.08984;94467.07;;;;
2021/01/02 05:26:30;;;;;;;34.85;19.75;;;;;;;0.76;73.08984;94467.07;;;;
2021/01/02 05:27:31;;;;;;;34.85;19.75;;;;;;;0.76;73.08984;94467.07;;;;
2021/01/02 05:28:32;;;;;;;34.85;19.75;;;;;;;0.76;73.08984;94467.07;;;;
2021/01/02 05:29:33;;;;;;;34.85;19.75;;;;;;;0.76;73.08984;94467.07;;;;
2021/01/02 05:30:33;;;;;;;34.85;19.75;;;;;;;0.76;73.08984;94467.07;;;;
2021/01/02 05:31:34;;;;;;;29.25;18.5;;;;;;;0.82;73.1709;94466.8;;;;
2021/01/02 05:32:37;;;;;;;29.25;18.5;;;;;;;0.82;73.1709;94466.8;;;;
2021/01/02 05:33:54;;;;;;;29.25;18.5;;;;;;;0.82;73.1709;94466.8;;;;
2021/01/02 05:35:02;;;;;;;29.25;18.5;;;;;;;0.82;73.1709;94466.8;;;;
2021/01/02 05:36:18;;;;;;;29.25;18.5;;;;;;;0.82;73.1709;94466.8;;;;
2021/01/02 05:37:20;;;;;;;29.25;18.5;;;;;;;0.82;73.1709;94466.8;;;;
2021/01/02 05:38:21;;;;;;;29.25;18.5;;;;;;;0.82;73.1709;94466.8;;;;
2021/01/02 05:39:26;;;;;;;29.25;18.5;;;;;;;0.82;73.1709;94466.8;;;;
2021/01/02 05:40:35;;;;;;;29.25;18.5;;;;;;;0.82;73.1709;94466.8;;;;
2021/01/02 05:41:37;;;;;;;29.25;18.5;;;;;;;0.82;73.1709;94466.8;;;;
2021/01/02 05:42:54;;;;;;;24;15;;;;;;;0.72;73.27051;94471.66;;;;
2021/01/02 05:43:56;;;;;;;24;15;;;;;;;0.72;73.27051;94471.66;;;;
2021/01/02 05:45:11;;;;;;;24;15;;;;;;;0.72;73.27051;94471.66;;;;
2021/01/02 05:46:14;;;;;;;24;15;;;;;;;0.72;73.27051;94471.66;;;;
2021/01/02 05:47:16;;;;;;;24;15;;;;;;;0.72;73.27051;94471.66;;;;
2021/01/02 05:48:20;;;;;;;24;15;;;;;;;0.72;73.27051;94471.66;;;;
2021/01/02 05:49:22;;;;;;;24;15;;;;;;;0.72;73.27051;94471.66;;;;
2021/01/02 05:50:28;;;;;;;24;15;;;;;;;0.72;73.27051;94471.66;;;;
2021/01/02 05:51:33;;;;;;;24;15;;;;;;;0.72;73.27051;94471.66;;;;
2021/01/02 05:52:41;;;;;;;24;15;;;;;;;0.72;73.27051;94471.66;;;;
2021/01/02 05:53:45;;;;;;;25.75;15.8;;;;;;;0.57;73.51563;94462.98;;;;
2021/01/02 05:54:49;;;;;;;25.75;15.8;;;;;;;0.57;73.51563;94462.98;;;;
2021/01/02 05:55:50;;;;;;;25.75;15.8;;;;;;;0.57;73.51563;94462.98;;;;
2021/01/02 05:57:08;;;;;;;25.75;15.8;;;;;;;0.57;73.51563;94462.98;;;;
2021/01/02 05:58:09;;;;;;;25.75;15.8;;;;;;;0.57;73.51563;94462.98;;;;
2021/01/02 05:59:18;;;;;;;25.75;15.8;;;;;;;0.57;73.51563;94462.98;;;;
2021/01/02 06:00:35;;;;;;;25.75;15.8;;;;;;;0.57;73.51563;94462.98;;;;
2021/01/02 06:01:37;;;;;;;25.75;15.8;;;;;;;0.57;73.51563;94462.98;;;;
2021/01/02 06:02:38;;;;;;;25.75;15.8;;;;;;;0.57;73.51563;94462.98;;;;
2021/01/02 06:03:39;;;;;;;25.45;15.1;;;;;;;0.51;73.70508;94468.14;;;;
2021/01/02 06:04:41;;;;;;;25.45;15.1;;;;;;;0.51;73.70508;94468.14;;;;
2021/01/02 06:05:53;;;;;;;25.45;15.1;;;;;;;0.51;73.70508;94468.14;;;;
2021/01/02 06:06:55;;;;;;;25.45;15.1;;;;;;;0.51;73.70508;94468.14;;;;
2021/01/02 06:08:11;;;;;;;25.45;15.1;;;;;;;0.51;73.70508;94468.14;;;;
2021/01/02 06:09:26;;;;;;;25.45;15.1;;;;;;;0.51;73.70508;94468.14;;;;